sensor_id;sensor_type;location;lat;lon;timestamp;pressure;altitude;pressure_sealevel;temperature;humidity
28181;BME280;15464;50.988;10.318;2023-04-01T00:01:15;97095.88;;;8.43;100.00
28181;BME280;15464;50.988;10.318;2023-04-01T00:03:43;97101.16;;;8.43;99.85
28181;BME280;15464;50.988;10.318;2023-04-01T00:06:15;97090.91;;;8.48;100.00
28181;BME280;15464;50.988;10.318;2023-04-01T00:08:42;97102.47;;;8.47;99.05
28181;BME280;15464;50.988;10.318;2023-04-01T00:11:09;97100.13;;;8.44;99.76
28181;BME280;15464;50.988;10.318;2023-04-01T00:13:36;97103.28;;;8.47;98.91
28181;BME280;15464;50.988;10.318;2023-04-01T00:16:02;97097.50;;;8.44;99.43
28181;BME280;15464;50.988;10.318;2023-04-01T00:18:45;97097.03;;;8.48;99.01
28181;BME280;15464;50.988;10.318;2023-04-01T00:21:14;97086.91;;;8.44;99.16
28181;BME280;15464;50.988;10.318;2023-04-01T00:23:41;97092.53;;;8.41;98.72
28181;BME280;15464;50.988;10.318;2023-04-01T00:26:08;97099.16;;;8.45;99.05
28181;BME280;15464;50.988;10.318;2023-04-01T00:28:35;97090.56;;;8.43;97.68
28181;BME280;15464;50.988;10.318;2023-04-01T00:31:09;97090.25;;;8.46;98.00
28181;BME280;15464;50.988;10.318;2023-04-01T00:33:37;97094.03;;;8.43;98.08
28181;BME280;15464;50.988;10.318;2023-04-01T00:36:16;97090.91;;;8.48;98.50
28181;BME280;15464;50.988;10.318;2023-04-01T00:38:44;97093.03;;;8.44;98.92
28181;BME280;15464;50.988;10.318;2023-04-01T00:41:13;97083.97;;;8.47;98.59
28181;BME280;15464;50.988;10.318;2023-04-01T00:43:43;97083.28;;;8.45;98.52
28181;BME280;15464;50.988;10.318;2023-04-01T00:46:10;97077.53;;;8.41;98.88
28181;BME280;15464;50.988;10.318;2023-04-01T00:48:42;97082.31;;;8.46;98.31
28181;BME280;15464;50.988;10.318;2023-04-01T00:51:17;97091.91;;;8.47;98.20
28181;BME280;15464;50.988;10.318;2023-04-01T00:53:48;97079.00;;;8.52;97.51
28181;BME280;15464;50.988;10.318;2023-04-01T00:56:22;97080.50;;;8.46;97.35
28181;BME280;15464;50.988;10.318;2023-04-01T00:58:54;97083.31;;;8.53;97.36
28181;BME280;15464;50.988;10.318;2023-04-01T01:01:24;97085.44;;;8.49;97.58
28181;BME280;15464;50.988;10.318;2023-04-01T01:03:52;97085.97;;;8.53;96.84
28181;BME280;15464;50.988;10.318;2023-04-01T01:06:24;97084.94;;;8.46;98.18
28181;BME280;15464;50.988;10.318;2023-04-01T01:09:03;97090.09;;;8.47;97.77
28181;BME280;15464;50.988;10.318;2023-04-01T01:11:42;97093.72;;;8.46;97.19
28181;BME280;15464;50.988;10.318;2023-04-01T01:16:48;97090.25;;;8.46;96.42
28181;BME280;15464;50.988;10.318;2023-04-01T01:22:59;97085.78;;;8.46;97.29
28181;BME280;15464;50.988;10.318;2023-04-01T01:31:24;97088.91;;;8.42;97.43
28181;BME280;15464;50.988;10.318;2023-04-01T01:36:26;97076.03;;;8.47;96.49
28181;BME280;15464;50.988;10.318;2023-04-01T01:38:55;97082.97;;;8.48;96.54
28181;BME280;15464;50.988;10.318;2023-04-01T01:41:25;97084.94;;;8.46;96.30
28181;BME280;15464;50.988;10.318;2023-04-01T01:43:54;97082.31;;;8.46;96.16
28181;BME280;15464;50.988;10.318;2023-04-01T01:46:24;97078.34;;;8.42;96.70
28181;BME280;15464;50.988;10.318;2023-04-01T01:48:53;97072.09;;;8.43;96.23
28181;BME280;15464;50.988;10.318;2023-04-01T01:51:22;97075.72;;;8.42;96.01
28181;BME280;15464;50.988;10.318;2023-04-01T01:53:49;97071.72;;;8.38;97.22
28181;BME280;15464;50.988;10.318;2023-04-01T01:56:18;97076.53;;;8.34;96.83
28181;BME280;15464;50.988;10.318;2023-04-01T01:58:49;97079.84;;;8.36;97.97
28181;BME280;15464;50.988;10.318;2023-04-01T02:01:24;97083.63;;;8.34;98.38
28181;BME280;15464;50.988;10.318;2023-04-01T02:03:52;97091.84;;;8.31;99.91
28181;BME280;15464;50.988;10.318;2023-04-01T02:06:26;97077.97;;;8.29;99.44
28181;BME280;15464;50.988;10.318;2023-04-01T02:09:07;97089.19;;;8.23;100.00
28181;BME280;15464;50.988;10.318;2023-04-01T02:11:48;97082.91;;;8.24;100.00
28181;BME280;15464;50.988;10.318;2023-04-01T02:14:20;97079.25;;;8.17;100.00
28181;BME280;15464;50.988;10.318;2023-04-01T02:17:10;97081.56;;;8.12;100.00
28181;BME280;15464;50.988;10.318;2023-04-01T02:19:41;97076.28;;;8.12;100.00
28181;BME280;15464;50.988;10.318;2023-04-01T02:22:14;97076.94;;;8.05;100.00
28181;BME280;15464;50.988;10.318;2023-04-01T02:24:43;97075.59;;;8.01;100.00
28181;BME280;15464;50.988;10.318;2023-04-01T02:27:12;97078.56;;;7.98;100.00
28181;BME280;15464;50.988;10.318;2023-04-01T02:29:39;97077.56;;;7.99;100.00
28181;BME280;15464;50.988;10.318;2023-04-01T02:32:06;97074.25;;;7.97;100.00
28181;BME280;15464;50.988;10.318;2023-04-01T02:34:34;97071.97;;;8.02;100.00
28181;BME280;15464;50.988;10.318;2023-04-01T02:37:01;97072.28;;;7.99;100.00
28181;BME280;15464;50.988;10.318;2023-04-01T02:39:28;97082.53;;;8.02;100.00
28181;BME280;15464;50.988;10.318;2023-04-01T02:41:55;97073.28;;;7.98;100.00
28181;BME280;15464;50.988;10.318;2023-04-01T02:44:21;97081.69;;;8.02;100.00
28181;BME280;15464;50.988;10.318;2023-04-01T02:46:48;97073.63;;;8.03;100.00
28181;BME280;15464;50.988;10.318;2023-04-01T02:49:15;97072.78;;;8.03;100.00
28181;BME280;15464;50.988;10.318;2023-04-01T02:51:41;97072.44;;;8.06;100.00
28181;BME280;15464;50.988;10.318;2023-04-01T02:54:08;97073.09;;;8.00;100.00
28181;BME280;15464;50.988;10.318;2023-04-01T02:56:35;97079.19;;;8.00;100.00
28181;BME280;15464;50.988;10.318;2023-04-01T02:59:01;97067.00;;;7.99;100.00
28181;BME280;15464;50.988;10.318;2023-04-01T03:01:28;97093.06;;;8.02;100.00
28181;BME280;15464;50.988;10.318;2023-04-01T03:03:55;97081.53;;;8.03;100.00
28181;BME280;15464;50.988;10.318;2023-04-01T03:06:21;97079.06;;;8.02;100.00
28181;BME280;15464;50.988;10.318;2023-04-01T03:08:48;97080.56;;;8.04;100.00
28181;BME280;15464;50.988;10.318;2023-04-01T03:11:15;97082.53;;;8.02;99.46
28181;BME280;15464;50.988;10.318;2023-04-01T03:13:41;97078.91;;;8.03;99.28
28181;BME280;15464;50.988;10.318;2023-04-01T03:16:08;97077.25;;;8.02;99.92
28181;BME280;15464;50.988;10.318;2023-04-01T03:18:35;97084.47;;;8.00;100.00
28181;BME280;15464;50.988;10.318;2023-04-01T03:21:18;97081.53;;;8.03;99.34
28181;BME280;15464;50.988;10.318;2023-04-01T03:23:45;97078.91;;;8.03;100.00
28181;BME280;15464;50.988;10.318;2023-04-01T03:26:12;97088.47;;;8.04;99.13
28181;BME280;15464;50.988;10.318;2023-04-01T03:28:39;97078.91;;;8.03;99.94
28181;BME280;15464;50.988;10.318;2023-04-01T03:31:06;97082.53;;;8.02;99.26
28181;BME280;15464;50.988;10.318;2023-04-01T03:33:33;97083.66;;;8.00;99.24
28181;BME280;15464;50.988;10.318;2023-04-01T03:36:00;97073.28;;;8.06;98.54
28181;BME280;15464;50.988;10.318;2023-04-01T03:38:27;97068.66;;;8.08;98.07
28181;BME280;15464;50.988;10.318;2023-04-01T03:40:53;97075.28;;;8.04;97.18
28181;BME280;15464;50.988;10.318;2023-04-01T03:43:20;97082.53;;;8.02;98.25
28181;BME280;15464;50.988;10.318;2023-04-01T03:45:50;97070.63;;;8.06;98.19
28181;BME280;15464;50.988;10.318;2023-04-01T03:48:17;97083.84;;;8.06;97.44
28181;BME280;15464;50.988;10.318;2023-04-01T03:50:44;97084.03;;;8.05;96.92
28181;BME280;15464;50.988;10.318;2023-04-01T03:53:11;97080.22;;;8.07;97.03
28181;BME280;15464;50.988;10.318;2023-04-01T03:55:38;97082.22;;;8.05;97.48
28181;BME280;15464;50.988;10.318;2023-04-01T03:58:06;97083.34;;;8.03;97.74
28181;BME280;15464;50.988;10.318;2023-04-01T04:00:34;97084.00;;;7.97;97.64
28181;BME280;15464;50.988;10.318;2023-04-01T04:03:01;97084.00;;;7.97;97.54
28181;BME280;15464;50.988;10.318;2023-04-01T04:05:28;97087.31;;;7.99;97.83
28181;BME280;15464;50.988;10.318;2023-04-01T04:07:55;97079.53;;;7.97;97.67
28181;BME280;15464;50.988;10.318;2023-04-01T04:10:22;97095.38;;;7.97;97.16
28181;BME280;15464;50.988;10.318;2023-04-01T04:12:50;97085.50;;;7.99;96.93
28181;BME280;15464;50.988;10.318;2023-04-01T04:15:17;97090.94;;;7.98;97.14
28181;BME280;15464;50.988;10.318;2023-04-01T04:17:45;97081.50;;;7.95;97.07
28181;BME280;15464;50.988;10.318;2023-04-01T04:20:12;97090.25;;;7.96;98.51
28181;BME280;15464;50.988;10.318;2023-04-01T04:22:39;97090.25;;;7.96;98.14
28181;BME280;15464;50.988;10.318;2023-04-01T04:25:06;97098.16;;;7.96;97.76
28181;BME280;15464;50.988;10.318;2023-04-01T04:27:34;97103.31;;;7.97;96.88
28181;BME280;15464;50.988;10.318;2023-04-01T04:30:01;97098.69;;;7.99;97.25
28181;BME280;15464;50.988;10.318;2023-04-01T04:32:28;97106.09;;;7.96;97.08
28181;BME280;15464;50.988;10.318;2023-04-01T04:34:56;97105.41;;;7.94;97.73
28181;BME280;15464;50.988;10.318;2023-04-01T04:37:23;97114.34;;;7.93;97.46
28181;BME280;15464;50.988;10.318;2023-04-01T04:39:49;97107.72;;;7.89;97.78
28181;BME280;15464;50.988;10.318;2023-04-01T04:42:16;97110.03;;;7.92;97.00
28181;BME280;15464;50.988;10.318;2023-04-01T04:44:43;97102.63;;;7.95;97.89
28181;BME280;15464;50.988;10.318;2023-04-01T04:47:09;97105.59;;;7.92;97.56
28181;BME280;15464;50.988;10.318;2023-04-01T04:49:36;97111.19;;;7.89;97.71
28181;BME280;15464;50.988;10.318;2023-04-01T04:52:03;97107.22;;;7.93;97.46
28181;BME280;15464;50.988;10.318;2023-04-01T04:54:30;97119.09;;;7.89;97.39
28181;BME280;15464;50.988;10.318;2023-04-01T04:56:56;97117.78;;;7.93;97.26
28181;BME280;15464;50.988;10.318;2023-04-01T04:59:23;97122.25;;;7.93;96.89
28181;BME280;15464;50.988;10.318;2023-04-01T05:01:50;97118.28;;;7.89;97.24
28181;BME280;15464;50.988;10.318;2023-04-01T05:04:17;97123.34;;;7.82;97.25
28181;BME280;15464;50.988;10.318;2023-04-01T05:06:43;97120.56;;;7.84;96.30
28181;BME280;15464;50.988;10.318;2023-04-01T05:09:11;97121.41;;;7.84;96.02
28181;BME280;15464;50.988;10.318;2023-04-01T05:11:38;97118.06;;;7.82;96.67
28181;BME280;15464;50.988;10.318;2023-04-01T05:14:05;97117.91;;;7.84;96.60
28181;BME280;15464;50.988;10.318;2023-04-01T05:16:32;97125.84;;;7.84;96.56
28181;BME280;15464;50.988;10.318;2023-04-01T05:18:58;97122.84;;;7.79;96.57
28181;BME280;15464;50.988;10.318;2023-04-01T05:21:25;97116.59;;;7.88;96.04
28181;BME280;15464;50.988;10.318;2023-04-01T05:23:52;97113.81;;;7.89;96.17
28181;BME280;15464;50.988;10.318;2023-04-01T05:26:19;97117.47;;;7.96;95.80
28181;BME280;15464;50.988;10.318;2023-04-01T05:28:45;97111.22;;;7.97;96.12
28181;BME280;15464;50.988;10.318;2023-04-01T05:31:12;97109.25;;;7.99;95.67
28181;BME280;15464;50.988;10.318;2023-04-01T05:33:39;97112.88;;;7.98;96.28
28181;BME280;15464;50.988;10.318;2023-04-01T05:36:11;97117.81;;;8.01;95.71
28181;BME280;15464;50.988;10.318;2023-04-01T05:38:39;97117.53;;;8.04;95.87
28181;BME280;15464;50.988;10.318;2023-04-01T05:41:06;97115.22;;;8.09;95.00
28181;BME280;15464;50.988;10.318;2023-04-01T05:43:36;97117.03;;;8.09;94.79
28181;BME280;15464;50.988;10.318;2023-04-01T05:46:03;97113.56;;;8.08;94.51
28181;BME280;15464;50.988;10.318;2023-04-01T05:48:29;97114.88;;;8.13;93.86
28181;BME280;15464;50.988;10.318;2023-04-01T05:50:56;97119.53;;;8.10;93.07
28181;BME280;15464;50.988;10.318;2023-04-01T05:53:23;97114.25;;;8.19;93.14
28181;BME280;15464;50.988;10.318;2023-04-01T05:55:49;97122.00;;;8.20;93.65
28181;BME280;15464;50.988;10.318;2023-04-01T05:58:16;97120.19;;;8.21;93.12
28181;BME280;15464;50.988;10.318;2023-04-01T06:00:43;97121.19;;;8.20;92.82
28181;BME280;15464;50.988;10.318;2023-04-01T06:03:09;97120.53;;;8.26;93.39
28181;BME280;15464;50.988;10.318;2023-04-01T06:05:41;97116.22;;;8.25;93.88
28181;BME280;15464;50.988;10.318;2023-04-01T06:08:16;97127.81;;;8.24;92.91
28181;BME280;15464;50.988;10.318;2023-04-01T06:19:34;97126.03;;;8.32;92.91
28181;BME280;15464;50.988;10.318;2023-04-01T06:30:43;97131.31;;;8.32;91.75
28181;BME280;15464;50.988;10.318;2023-04-01T06:36:22;97134.63;;;8.34;93.31
28181;BME280;15464;50.988;10.318;2023-04-01T06:41:54;97140.94;;;8.41;93.13
28181;BME280;15464;50.988;10.318;2023-04-01T06:47:51;97139.59;;;8.45;93.02
28181;BME280;15464;50.988;10.318;2023-04-01T06:50:35;97136.47;;;8.50;92.49
28181;BME280;15464;50.988;10.318;2023-04-01T06:53:12;97134.34;;;8.54;91.59
28181;BME280;15464;50.988;10.318;2023-04-01T06:55:51;97143.44;;;8.59;93.09
28181;BME280;15464;50.988;10.318;2023-04-01T06:58:23;97148.72;;;8.59;93.27
28181;BME280;15464;50.988;10.318;2023-04-01T07:00:58;97141.81;;;8.66;93.57
28181;BME280;15464;50.988;10.318;2023-04-01T07:03:31;97136.66;;;8.65;92.04
28181;BME280;15464;50.988;10.318;2023-04-01T07:06:04;97138.81;;;8.69;92.26
28181;BME280;15464;50.988;10.318;2023-04-01T07:08:36;97143.44;;;8.75;92.54
28181;BME280;15464;50.988;10.318;2023-04-01T07:11:06;97150.91;;;8.80;92.31
28181;BME280;15464;50.988;10.318;2023-04-01T07:13:53;97144.78;;;8.87;92.60
28181;BME280;15464;50.988;10.318;2023-04-01T07:16:30;97154.69;;;8.94;93.33
28181;BME280;15464;50.988;10.318;2023-04-01T07:19:06;97148.41;;;8.95;93.13
28181;BME280;15464;50.988;10.318;2023-04-01T07:21:41;97158.81;;;8.88;94.35
28181;BME280;15464;50.988;10.318;2023-04-01T07:24:37;97148.06;;;8.81;93.53
28181;BME280;15464;50.988;10.318;2023-04-01T07:27:10;97142.50;;;8.93;95.09
28181;BME280;15464;50.988;10.318;2023-04-01T07:29:37;97154.38;;;8.88;94.05
28181;BME280;15464;50.988;10.318;2023-04-01T07:32:31;97153.53;;;8.88;94.60
28181;BME280;15464;50.988;10.318;2023-04-01T08:05:13;97165.13;;;9.36;92.86
28181;BME280;15464;50.988;10.318;2023-04-01T08:13:16;97176.19;;;9.47;95.41
28181;BME280;15464;50.988;10.318;2023-04-01T08:16:09;97174.88;;;9.27;93.25
28181;BME280;15464;50.988;10.318;2023-04-01T08:21:21;97173.56;;;9.15;95.03
28181;BME280;15464;50.988;10.318;2023-04-01T08:23:52;97185.47;;;9.27;94.48
28181;BME280;15464;50.988;10.318;2023-04-01T08:29:23;97189.91;;;9.26;94.26
28181;BME280;15464;50.988;10.318;2023-04-01T08:32:03;97191.38;;;9.37;93.90
28181;BME280;15464;50.988;10.318;2023-04-01T08:34:39;97186.44;;;9.10;93.61
28181;BME280;15464;50.988;10.318;2023-04-01T08:37:21;97184.31;;;9.21;95.02
28181;BME280;15464;50.988;10.318;2023-04-01T08:39:51;97180.16;;;9.27;94.25
28181;BME280;15464;50.988;10.318;2023-04-01T08:47:52;97180.81;;;9.21;94.38
28181;BME280;15464;50.988;10.318;2023-04-01T08:50:25;97187.63;;;9.23;93.61
28181;BME280;15464;50.988;10.318;2023-04-01T08:53:07;97192.09;;;9.23;93.06
28181;BME280;15464;50.988;10.318;2023-04-01T09:01:19;97193.41;;;9.35;92.33
28181;BME280;15464;50.988;10.318;2023-04-01T09:07:34;97192.06;;;9.47;91.22
28181;BME280;15464;50.988;10.318;2023-04-01T09:10:03;97196.03;;;9.59;91.71
28181;BME280;15464;50.988;10.318;2023-04-01T09:13:35;97190.22;;;9.72;91.81
28181;BME280;15464;50.988;10.318;2023-04-01T09:21:03;97183.09;;;9.64;90.55
28181;BME280;15464;50.988;10.318;2023-04-01T09:26:29;97202.63;;;9.63;87.96
28181;BME280;15464;50.988;10.318;2023-04-01T09:32:11;97194.28;;;9.99;90.04
28181;BME280;15464;50.988;10.318;2023-04-01T09:42:59;97201.41;;;9.98;85.77
28181;BME280;15464;50.988;10.318;2023-04-01T09:46:20;97202.69;;;10.10;87.75
28181;BME280;15464;50.988;10.318;2023-04-01T09:56:52;97203.84;;;10.24;87.29
28181;BME280;15464;50.988;10.318;2023-04-01T10:08:35;97217.59;;;10.11;89.03
28181;BME280;15464;50.988;10.318;2023-04-01T10:14:22;97216.63;;;10.04;88.63
28181;BME280;15464;50.988;10.318;2023-04-01T10:38:34;97213.84;;;9.90;91.81
28181;BME280;15464;50.988;10.318;2023-04-01T10:44:09;97217.00;;;10.40;93.72
28181;BME280;15464;50.988;10.318;2023-04-01T10:49:43;97214.50;;;10.78;91.31
28181;BME280;15464;50.988;10.318;2023-04-01T10:52:31;97214.78;;;10.91;90.32
28181;BME280;15464;50.988;10.318;2023-04-01T11:24:34;97223.03;;;10.26;89.84
28181;BME280;15464;50.988;10.318;2023-04-01T11:27:21;97224.31;;;10.38;89.89
28181;BME280;15464;50.988;10.318;2023-04-01T11:32:31;97232.47;;;10.21;91.86
28181;BME280;15464;50.988;10.318;2023-04-01T11:40:51;97226.38;;;10.04;90.47
28181;BME280;15464;50.988;10.318;2023-04-01T11:43:31;97231.31;;;10.07;91.75
28181;BME280;15464;50.988;10.318;2023-04-01T11:46:12;97232.00;;;10.17;90.58
28181;BME280;15464;50.988;10.318;2023-04-01T11:55:01;97242.63;;;9.93;92.35
28181;BME280;15464;50.988;10.318;2023-04-01T12:11:22;97248.81;;;10.40;94.09
28181;BME280;15464;50.988;10.318;2023-04-01T12:24:46;97255.34;;;11.22;93.19
28181;BME280;15464;50.988;10.318;2023-04-01T12:27:53;97259.34;;;11.18;92.35
28181;BME280;15464;50.988;10.318;2023-04-01T12:41:16;97257.22;;;11.82;89.64
28181;BME280;15464;50.988;10.318;2023-04-01T12:55:35;97255.56;;;11.81;85.81
28181;BME280;15464;50.988;10.318;2023-04-01T12:58:13;97249.84;;;11.92;86.58
28181;BME280;15464;50.988;10.318;2023-04-01T13:17:12;97269.63;;;11.21;85.49
28181;BME280;15464;50.988;10.318;2023-04-01T13:25:16;97288.59;;;11.10;89.60
28181;BME280;15464;50.988;10.318;2023-04-01T13:27:56;97287.97;;;10.69;91.53
28181;BME280;15464;50.988;10.318;2023-04-01T13:30:36;97293.00;;;10.87;92.58
28181;BME280;15464;50.988;10.318;2023-04-01T13:44:46;97296.00;;;10.92;93.40
28181;BME280;15464;50.988;10.318;2023-04-01T14:01:46;97294.75;;;11.11;95.70
28181;BME280;15464;50.988;10.318;2023-04-01T14:09:33;97306.88;;;11.05;94.15
28181;BME280;15464;50.988;10.318;2023-04-01T14:12:11;97304.16;;;11.13;95.27
28181;BME280;15464;50.988;10.318;2023-04-01T14:17:30;97312.13;;;11.13;96.99
28181;BME280;15464;50.988;10.318;2023-04-01T14:23:49;97317.03;;;11.24;95.68
28181;BME280;15464;50.988;10.318;2023-04-01T14:31:44;97324.34;;;11.22;98.24
28181;BME280;15464;50.988;10.318;2023-04-01T14:34:47;97318.19;;;10.99;95.98
28181;BME280;15464;50.988;10.318;2023-04-01T14:37:23;97323.03;;;11.18;96.36
28181;BME280;15464;50.988;10.318;2023-04-01T14:47:54;97334.97;;;10.83;96.40
28181;BME280;15464;50.988;10.318;2023-04-01T14:50:28;97326.09;;;11.07;97.03
28181;BME280;15464;50.988;10.318;2023-04-01T14:58:10;97334.00;;;11.15;99.13
28181;BME280;15464;50.988;10.318;2023-04-01T15:04:15;97335.81;;;11.23;98.23
28181;BME280;15464;50.988;10.318;2023-04-01T15:07:11;97346.31;;;11.39;97.57
28181;BME280;15464;50.988;10.318;2023-04-01T15:12:43;97345.88;;;10.97;95.50
28181;BME280;15464;50.988;10.318;2023-04-01T15:26:13;97358.97;;;10.98;99.42
28181;BME280;15464;50.988;10.318;2023-04-01T15:31:29;97364.00;;;10.85;100.00
28181;BME280;15464;50.988;10.318;2023-04-01T15:34:26;97364.28;;;10.98;100.00
28181;BME280;15464;50.988;10.318;2023-04-01T15:37:18;97369.50;;;11.14;99.57
28181;BME280;15464;50.988;10.318;2023-04-01T15:40:22;97374.81;;;11.14;100.00
28181;BME280;15464;50.988;10.318;2023-04-01T15:43:19;97374.22;;;11.04;98.87
28181;BME280;15464;50.988;10.318;2023-04-01T16:00:11;97384.53;;;11.30;99.33
28181;BME280;15464;50.988;10.318;2023-04-01T16:02:48;97386.38;;;11.29;99.61
28181;BME280;15464;50.988;10.318;2023-04-01T16:05:24;97388.38;;;11.19;99.65
28181;BME280;15464;50.988;10.318;2023-04-01T16:13:27;97405.44;;;10.86;100.00
28181;BME280;15464;50.988;10.318;2023-04-01T16:16:12;97396.81;;;10.92;100.00
28181;BME280;15464;50.988;10.318;2023-04-01T16:21:50;97407.13;;;10.79;100.00
28181;BME280;15464;50.988;10.318;2023-04-01T16:27:04;97412.78;;;10.60;100.00
28181;BME280;15464;50.988;10.318;2023-04-01T16:29:45;97415.91;;;10.79;100.00
28181;BME280;15464;50.988;10.318;2023-04-01T16:32:44;97414.56;;;10.83;100.00
28181;BME280;15464;50.988;10.318;2023-04-01T16:37:55;97426.03;;;10.60;100.00
28181;BME280;15464;50.988;10.318;2023-04-01T16:41:10;97426.41;;;10.48;100.00
28181;BME280;15464;50.988;10.318;2023-04-01T16:43:42;97428.34;;;10.63;100.00
28181;BME280;15464;50.988;10.318;2023-04-01T16:46:34;97432.69;;;10.56;100.00
28181;BME280;15464;50.988;10.318;2023-04-01T16:51:53;97439.81;;;10.31;100.00
28181;BME280;15464;50.988;10.318;2023-04-01T16:54:43;97438.00;;;10.23;100.00
28181;BME280;15464;50.988;10.318;2023-04-01T16:57:18;97441.66;;;10.22;100.00
28181;BME280;15464;50.988;10.318;2023-04-01T17:02:17;97442.81;;;10.36;100.00
28181;BME280;15464;50.988;10.318;2023-04-01T17:05:01;97457.66;;;10.12;100.00
28181;BME280;15464;50.988;10.318;2023-04-01T17:08:04;97457.66;;;10.12;100.00
28181;BME280;15464;50.988;10.318;2023-04-01T17:13:34;97465.66;;;10.21;100.00
28181;BME280;15464;50.988;10.318;2023-04-01T17:18:48;97472.72;;;10.12;100.00
28181;BME280;15464;50.988;10.318;2023-04-01T17:27:59;97482.34;;;10.05;100.00
28181;BME280;15464;50.988;10.318;2023-04-01T17:30:33;97487.81;;;10.11;100.00
28181;BME280;15464;50.988;10.318;2023-04-01T17:33:26;97491.09;;;9.97;100.00
28181;BME280;15464;50.988;10.318;2023-04-01T17:44:56;97513.59;;;9.85;100.00
28181;BME280;15464;50.988;10.318;2023-04-01T17:47:29;97520.34;;;9.80;100.00
28181;BME280;15464;50.988;10.318;2023-04-01T17:52:39;97522.78;;;9.65;100.00
28181;BME280;15464;50.988;10.318;2023-04-01T18:01:22;97546.41;;;9.58;100.00
28181;BME280;15464;50.988;10.318;2023-04-01T18:04:25;97554.69;;;9.55;100.00
28181;BME280;15464;50.988;10.318;2023-04-01T18:24:10;97572.44;;;9.37;100.00
28181;BME280;15464;50.988;10.318;2023-04-01T18:26:43;97582.03;;;9.38;100.00
28181;BME280;15464;50.988;10.318;2023-04-01T18:31:48;97593.91;;;9.34;100.00
28181;BME280;15464;50.988;10.318;2023-04-01T18:45:40;97613.00;;;9.46;100.00
28181;BME280;15464;50.988;10.318;2023-04-01T18:48:30;97612.19;;;9.45;100.00
28181;BME280;15464;50.988;10.318;2023-04-01T18:54:24;97624.63;;;9.27;100.00
28181;BME280;15464;50.988;10.318;2023-04-01T18:57:10;97633.25;;;9.29;100.00
28181;BME280;15464;50.988;10.318;2023-04-01T19:00:04;97640.22;;;9.30;100.00
28181;BME280;15464;50.988;10.318;2023-04-01T19:02:38;97636.72;;;9.29;100.00
28181;BME280;15464;50.988;10.318;2023-04-01T19:05:19;97640.00;;;9.23;100.00
28181;BME280;15464;50.988;10.318;2023-04-01T19:07:52;97649.97;;;9.29;100.00
28181;BME280;15464;50.988;10.318;2023-04-01T19:10:37;97647.69;;;9.35;100.00
28181;BME280;15464;50.988;10.318;2023-04-01T19:13:50;97653.25;;;9.31;100.00
28181;BME280;15464;50.988;10.318;2023-04-01T19:19:53;97661.66;;;9.27;100.00
28181;BME280;15464;50.988;10.318;2023-04-01T19:25:29;97667.34;;;9.14;100.00
28181;BME280;15464;50.988;10.318;2023-04-01T19:34:10;97674.47;;;9.14;100.00
28181;BME280;15464;50.988;10.318;2023-04-01T19:37:06;97675.66;;;9.19;100.00
28181;BME280;15464;50.988;10.318;2023-04-01T19:42:11;97689.56;;;9.21;100.00
28181;BME280;15464;50.988;10.318;2023-04-01T19:44:52;97679.00;;;9.21;100.00
28181;BME280;15464;50.988;10.318;2023-04-01T19:47:35;97687.44;;;9.25;100.00
28181;BME280;15464;50.988;10.318;2023-04-01T19:50:30;97691.75;;;9.26;100.00
28181;BME280;15464;50.988;10.318;2023-04-01T19:53:20;97689.56;;;9.21;100.00
28181;BME280;15464;50.988;10.318;2023-04-01T19:56:16;97703.63;;;9.22;100.00
28181;BME280;15464;50.988;10.318;2023-04-01T19:58:54;97708.59;;;9.25;100.00
28181;BME280;15464;50.988;10.318;2023-04-01T20:01:27;97704.63;;;9.21;100.00
28181;BME280;15464;50.988;10.318;2023-04-01T20:04:53;97708.59;;;9.25;100.00
28181;BME280;15464;50.988;10.318;2023-04-01T20:07:37;97720.19;;;9.24;100.00
28181;BME280;15464;50.988;10.318;2023-04-01T20:13:27;97734.41;;;9.23;100.00
28181;BME280;15464;50.988;10.318;2023-04-01T20:16:00;97738.50;;;9.17;100.00
28181;BME280;15464;50.988;10.318;2023-04-01T20:18:48;97743.63;;;9.19;100.00
28181;BME280;15464;50.988;10.318;2023-04-01T20:23:50;97753.53;;;9.17;100.00
28181;BME280;15464;50.988;10.318;2023-04-01T20:26:21;97753.81;;;9.14;100.00
28181;BME280;15464;50.988;10.318;2023-04-01T20:32:28;97760.69;;;9.07;100.00
28181;BME280;15464;50.988;10.318;2023-04-01T20:37:57;97775.13;;;8.95;100.00
28181;BME280;15464;50.988;10.318;2023-04-01T20:40:44;97779.44;;;8.96;100.00
28181;BME280;15464;50.988;10.318;2023-04-01T20:45:57;97775.34;;;8.83;100.00
28181;BME280;15464;50.988;10.318;2023-04-01T20:50:59;97778.91;;;8.92;100.00
28181;BME280;15464;50.988;10.318;2023-04-01T21:02:42;97796.59;;;8.92;100.00
28181;BME280;15464;50.988;10.318;2023-04-01T21:05:27;97795.75;;;8.91;100.00
28181;BME280;15464;50.988;10.318;2023-04-01T21:11:03;97808.84;;;8.93;100.00
28181;BME280;15464;50.988;10.318;2023-04-01T21:19:21;97816.75;;;8.93;100.00
28181;BME280;15464;50.988;10.318;2023-04-01T21:35:44;97840.75;;;8.81;100.00
28181;BME280;15464;50.988;10.318;2023-04-01T21:41:21;97852.97;;;8.82;100.00
28181;BME280;15464;50.988;10.318;2023-04-01T21:47:02;97851.03;;;8.84;100.00
28181;BME280;15464;50.988;10.318;2023-04-01T22:07:11;97878.06;;;8.78;100.00
28181;BME280;15464;50.988;10.318;2023-04-01T22:12:40;97883.50;;;8.77;100.00
28181;BME280;15464;50.988;10.318;2023-04-01T22:18:32;97887.81;;;8.78;100.00
28181;BME280;15464;50.988;10.318;2023-04-01T22:29:30;97905.09;;;8.72;100.00
28181;BME280;15464;50.988;10.318;2023-04-01T22:32:11;97905.91;;;8.73;100.00
28181;BME280;15464;50.988;10.318;2023-04-01T22:34:50;97917.31;;;8.73;100.00
28181;BME280;15464;50.988;10.318;2023-04-01T22:40:34;97915.94;;;8.69;100.00
28181;BME280;15464;50.988;10.318;2023-04-01T22:43:15;97930.13;;;8.68;100.00
28181;BME280;15464;50.988;10.318;2023-04-01T22:52:01;97963.84;;;8.28;100.00
28181;BME280;15464;50.988;10.318;2023-04-01T22:54:39;97974.97;;;7.93;100.00
28181;BME280;15464;50.988;10.318;2023-04-01T22:57:14;97979.97;;;7.86;100.00